C.de Malaga — EAJW — position and weather

sailwx.info

Track history (hours):
 
Tides and Currents Weather Stations Pressure Air Temp Water Temp Dewpoint Dewpoint Depression Visibility Wind Speed Wind Dir Waves Ship Positions

C.de Malaga

Last reported at 2017-Nov-18 01:52 UTC. Time now 2017-Nov-18 06:53 UTC.
Position N 36°08' W 005°26'.

Length 137 m; draft 3.7 m.

Type: Passenger vessel. MMSI: 224549000.

Date/timePositionNaut miles runAvg speedWind from/ knotsBaromVisibWave heightAir tempDewpointWater temp
2017-Nov-18 01:52N 36°08' W 005°26'0 0.0
2017-Nov-18 01:30N 36°08' W 005°26'0 0.1
2017-Nov-18 00:57N 36°08' W 005°26'2 3.9
2017-Nov-18 00:28N 36°08' W 005°24'612.8
2017-Nov-18 00:00N 36°02' W 005°24'7 2.3
2017-Nov-17 20:49N 35°56' W 005°31'413.3
2017-Nov-17 20:30N 35°59' W 005°27'713.1
2017-Nov-17 20:00N 36°05' W 005°24'3 2.6
2017-Nov-17 18:40N 36°08' W 005°26'9 8.0
2017-Nov-17 17:30N 35°59' W 005°26'3 1.1
2017-Nov-17 14:46N 35°57' W 005°29'8 2.4
2017-Nov-17 11:25N 36°04' W 005°24'613.3
2017-Nov-17 11:01N 35°59' W 005°26'4 1.6
2017-Nov-17 08:20N 35°56' W 005°30'813.0
2017-Nov-17 07:41N 36°03' W 005°24'5 0.7
2017-Nov-17 00:53N 36°08' W 005°26'0 0.8
2017-Nov-17 00:30N 36°08' W 005°26'4 9.0
2017-Nov-17 00:00N 36°04' W 005°23'714.4
2017-Nov-16 23:30N 35°58' W 005°27'3 1.4
2017-Nov-16 21:18N 35°56' W 005°30'413.4
2017-Nov-16 21:01N 35°59' W 005°28'5 1.5
2017-Nov-16 17:54N 36°03' W 005°24'615.3
2017-Nov-16 17:30N 35°58' W 005°27'2 0.8
2017-Nov-16 15:05N 35°56' W 005°29'113.6
2017-Nov-16 15:01N 35°57' W 005°29'8 2.1
2017-Nov-16 11:20N 36°04' W 005°24'514.1
2017-Nov-16 10:58N 35°59' W 005°26'4 1.7
2017-Nov-16 08:34N 35°57' W 005°30'114.1
2017-Nov-16 08:30N 35°57' W 005°29'11 3.0
2017-Nov-16 04:55N 36°08' W 005°26'0 0.0
2017-Nov-16 04:26N 36°08' W 005°26'0 0.0
2017-Nov-16 03:55N 36°08' W 005°26'0 0.1
2017-Nov-16 01:04N 36°08' W 005°26'0 5.4
2017-Nov-16 01:00N 36°08' W 005°26'4 8.7
2017-Nov-16 00:30N 36°04' W 005°23'714.4
2017-Nov-16 00:00N 35°58' W 005°27'3 1.6
2017-Nov-15 21:50N 35°56' W 005°30'413.6
2017-Nov-15 21:30N 35°60' W 005°27'8 3.7
2017-Nov-15 19:14N 36°08' W 005°26'5 6.9
2017-Nov-15 18:28N 36°03' W 005°23'714.8
2017-Nov-15 18:00N 35°57' W 005°27'2 0.9
2017-Nov-15 15:23N 35°56' W 005°30'6 1.4
2017-Nov-15 11:23N 35°60' W 005°25'411.0
2017-Nov-15 11:01N 35°57' W 005°28'2 0.9
2017-Nov-15 08:36N 35°57' W 005°30'113.2
2017-Nov-15 08:30N 35°59' W 005°29'811.8
2017-Nov-15 07:50N 36°05' W 005°24'4 0.7
2017-Nov-15 02:24N 36°08' W 005°26'2 1.2
2017-Nov-15 00:23N 36°07' W 005°23'514.0
2017-Nov-15 00:00N 36°02' W 005°23'8 2.6
2017-Nov-14 20:57N 35°56' W 005°30'613.1
2017-Nov-14 20:30N 36°01' W 005°26'5 1.8
2017-Nov-14 17:45N 36°05' W 005°23'414.8
2017-Nov-14 17:30N 36°02' W 005°24'7 2.5
2017-Nov-14 14:43N 35°57' W 005°30'210.6
2017-Nov-14 14:30N 35°58' W 005°28'6 2.0
2017-Nov-14 11:14N 36°03' W 005°23'514.4
2017-Nov-14 10:52N 35°58' W 005°26'4 1.5
2017-Nov-14 08:28N 35°56' W 005°29'612.0
2017-Nov-14 07:59N 36°01' W 005°25'7 1.5
2017-Nov-14 03:15N 36°08' W 005°26'0 0.0
2017-Nov-14 02:46N 36°08' W 005°26'0 0.0
2017-Nov-14 02:20N 36°08' W 005°26'0 0.0
2017-Nov-14 02:00N 36°08' W 005°26'0 0.0
2017-Nov-14 00:40N 36°08' W 005°26'0 0.0
2017-Nov-14 00:30N 36°08' W 005°26'1 2.7
2017-Nov-14 00:00N 36°09' W 005°25'713.2
2017-Nov-13 23:30N 36°03' W 005°23'815.4
2017-Nov-13 23:00N 35°57' W 005°29'12 0.5
2017-Nov-13 01:25N 36°08' W 005°26'2 4.7
2017-Nov-13 01:00N 36°08' W 005°24'714.6
2017-Nov-13 00:30N 36°01' W 005°24'7 2.7
2017-Nov-12 22:01N 35°56' W 005°30'011.2
2017-Nov-12 22:00N 35°56' W 005°30'612.3
2017-Nov-12 21:30N 36°01' W 005°25'713.9
2017-Nov-12 21:00N 36°08' W 005°24'2 1.2
2017-Nov-12 19:36N 36°08' W 005°26'0 0.0
2017-Nov-12 19:30N 36°08' W 005°26'2 3.3
2017-Nov-12 19:00N 36°08' W 005°24'1013.7
2017-Nov-12 18:18N 35°59' W 005°26'4 1.9
2017-Nov-12 16:02N 35°56' W 005°30'012.6
2017-Nov-12 16:00N 35°56' W 005°30'611.1
2017-Nov-12 15:30N 36°01' W 005°26'612.0
2017-Nov-12 15:00N 36°07' W 005°23'3 5.3
2017-Nov-12 14:30N 36°08' W 005°26'0 0.0
2017-Nov-12 14:00N 36°08' W 005°26'0 0.0
2017-Nov-12 13:29N 36°08' W 005°26'2 4.4
2017-Nov-12 13:00N 36°08' W 005°24'714.8
2017-Nov-12 12:30N 36°00' W 005°24'6 2.6
2017-Nov-12 10:04N 35°56' W 005°31'212.4
2017-Nov-12 09:56N 35°58' W 005°29'11 4.0
2017-Nov-12 07:14N 36°08' W 005°26'1 6.0
2017-Nov-12 07:00N 36°08' W 005°24'714.1
2017-Nov-12 06:30N 36°02' W 005°24'7 2.7
2017-Nov-12 03:46N 35°56' W 005°30'313.0
2017-Nov-12 03:31N 35°59' W 005°28'713.1
2017-Nov-12 03:01N 36°05' W 005°24'4 5.7
2017-Nov-12 02:20N 36°08' W 005°26'0 0.0
2017-Nov-12 02:00N 36°08' W 005°26'10 5.6
2017-Nov-12 00:18N 35°58' W 005°26'4 1.6
2017-Nov-11 21:34N 35°56' W 005°30'114.2
2017-Nov-11 21:30N 35°57' W 005°30'612.8
2017-Nov-11 21:00N 36°02' W 005°25'713.4
2017-Nov-11 20:30N 36°08' W 005°25'1 2.6
2017-Nov-11 19:57N 36°08' W 005°26'0 0.0
2017-Nov-11 19:30N 36°08' W 005°26'0 0.0
2017-Nov-11 19:00N 36°08' W 005°26'1 2.0
2017-Nov-11 18:20N 36°09' W 005°25'411.9
2017-Nov-11 18:00N 36°06' W 005°24'714.9
2017-Nov-11 17:30N 35°58' W 005°26'3 1.2
2017-Nov-11 15:01N 35°57' W 005°30'112.3
2017-Nov-11 14:58N 35°58' W 005°29'511.3
2017-Nov-11 14:29N 36°02' W 005°25'612.9
2017-Nov-11 14:00N 36°08' W 005°24'2 0.9
2017-Nov-11 11:53N 36°06' W 005°23'815.1
2017-Nov-11 11:21N 35°58' W 005°26'3 0.9
2017-Nov-11 08:21N 35°57' W 005°29'512.7
2017-Nov-11 07:57N 36°01' W 005°25'812.8
2017-Nov-11 07:20N 36°09' W 005°25'1 3.6
2017-Nov-11 07:00N 36°08' W 005°26'0 0.0
2017-Nov-11 05:56N 36°08' W 005°26'0 0.0
2017-Nov-11 05:28N 36°08' W 005°26'0 0.0
2017-Nov-11 04:14N 36°08' W 005°26'0 0.0
2017-Nov-11 04:00N 36°08' W 005°26'0 0.0
2017-Nov-11 03:30N 36°08' W 005°26'0 0.1
2017-Nov-11 00:27N 36°08' W 005°26'2 4.8
2017-Nov-11 00:00N 36°07' W 005°24'611.6
2017-Nov-10 23:30N 36°01' W 005°23'7 2.6
2017-Nov-10 20:40N 35°56' W 005°30'213.6
2017-Nov-10 20:30N 35°58' W 005°29'611.3
2017-Nov-10 20:00N 36°03' W 005°24'610.6
2017-Nov-10 19:26N 36°08' W 005°26'6 3.0
2017-Nov-10 17:35N 36°03' W 005°23'514.6
2017-Nov-10 17:13N 35°58' W 005°26'314.6
2017-Nov-10 17:00N 35°56' W 005°29'1 0.4
2017-Nov-10 14:31N 35°56' W 005°30'013.9
2017-Nov-10 14:30N 35°57' W 005°30'612.3
2017-Nov-10 14:00N 36°01' W 005°25'1 0.3
2017-Nov-10 11:11N 36°01' W 005°24'315.3
2017-Nov-10 10:59N 35°59' W 005°25'4 1.5
2017-Nov-10 08:17N 35°57' W 005°30'413.8
2017-Nov-10 08:00N 35°60' W 005°27'8 1.1
2017-Nov-10 00:42N 36°08' W 005°26'0 1.6
2017-Nov-10 00:30N 36°08' W 005°26'2 4.8
2017-Nov-10 00:00N 36°07' W 005°24'713.8
2017-Nov-09 23:31N 36°00' W 005°24'6 2.0
2017-Nov-09 20:44N 35°57' W 005°30'312.9
2017-Nov-09 20:30N 35°59' W 005°28'  
Track history (hours):
 
Tides and Currents Weather Stations Pressure Air Temp Water Temp Dewpoint Dewpoint Depression Visibility Wind Speed Wind Dir Waves Ship Positions

C.de Malaga

Last reported at 2017-Nov-18 01:52 UTC. Time now 2017-Nov-18 06:53 UTC.
Position N 36°08' W 005°26'.

Length 137 m; draft 3.7 m.

Type: Passenger vessel. MMSI: 224549000.

Date/timePositionNaut miles runAvg speedWind from/ knotsBaromVisibWave heightAir tempDewpointWater temp
2017-Nov-18 01:52N 36°08' W 005°26'0 0.0
2017-Nov-18 01:30N 36°08' W 005°26'0 0.1
2017-Nov-18 00:57N 36°08' W 005°26'2 3.9
2017-Nov-18 00:28N 36°08' W 005°24'612.8
2017-Nov-18 00:00N 36°02' W 005°24'7 2.3
2017-Nov-17 20:49N 35°56' W 005°31'413.3
2017-Nov-17 20:30N 35°59' W 005°27'713.1
2017-Nov-17 20:00N 36°05' W 005°24'3 2.6
2017-Nov-17 18:40N 36°08' W 005°26'9 8.0
2017-Nov-17 17:30N 35°59' W 005°26'3 1.1
2017-Nov-17 14:46N 35°57' W 005°29'8 2.4
2017-Nov-17 11:25N 36°04' W 005°24'613.3
2017-Nov-17 11:01N 35°59' W 005°26'4 1.6
2017-Nov-17 08:20N 35°56' W 005°30'813.0
2017-Nov-17 07:41N 36°03' W 005°24'5 0.7
2017-Nov-17 00:53N 36°08' W 005°26'0 0.8
2017-Nov-17 00:30N 36°08' W 005°26'4 9.0
2017-Nov-17 00:00N 36°04' W 005°23'714.4
2017-Nov-16 23:30N 35°58' W 005°27'3 1.4
2017-Nov-16 21:18N 35°56' W 005°30'413.4
2017-Nov-16 21:01N 35°59' W 005°28'5 1.5
2017-Nov-16 17:54N 36°03' W 005°24'615.3
2017-Nov-16 17:30N 35°58' W 005°27'2 0.8
2017-Nov-16 15:05N 35°56' W 005°29'113.6
2017-Nov-16 15:01N 35°57' W 005°29'8 2.1
2017-Nov-16 11:20N 36°04' W 005°24'514.1
2017-Nov-16 10:58N 35°59' W 005°26'4 1.7
2017-Nov-16 08:34N 35°57' W 005°30'114.1
2017-Nov-16 08:30N 35°57' W 005°29'11 3.0
2017-Nov-16 04:55N 36°08' W 005°26'0 0.0
2017-Nov-16 04:26N 36°08' W 005°26'0 0.0
2017-Nov-16 03:55N 36°08' W 005°26'0 0.1
2017-Nov-16 01:04N 36°08' W 005°26'0 5.4
2017-Nov-16 01:00N 36°08' W 005°26'4 8.7
2017-Nov-16 00:30N 36°04' W 005°23'714.4
2017-Nov-16 00:00N 35°58' W 005°27'3 1.6
2017-Nov-15 21:50N 35°56' W 005°30'413.6
2017-Nov-15 21:30N 35°60' W 005°27'8 3.7
2017-Nov-15 19:14N 36°08' W 005°26'5 6.9
2017-Nov-15 18:28N 36°03' W 005°23'714.8
2017-Nov-15 18:00N 35°57' W 005°27'2 0.9
2017-Nov-15 15:23N 35°56' W 005°30'6 1.4
2017-Nov-15 11:23N 35°60' W 005°25'411.0
2017-Nov-15 11:01N 35°57' W 005°28'2 0.9
2017-Nov-15 08:36N 35°57' W 005°30'113.2
2017-Nov-15 08:30N 35°59' W 005°29'811.8
2017-Nov-15 07:50N 36°05' W 005°24'4 0.7
2017-Nov-15 02:24N 36°08' W 005°26'2 1.2
2017-Nov-15 00:23N 36°07' W 005°23'514.0
2017-Nov-15 00:00N 36°02' W 005°23'8 2.6
2017-Nov-14 20:57N 35°56' W 005°30'613.1
2017-Nov-14 20:30N 36°01' W 005°26'5 1.8
2017-Nov-14 17:45N 36°05' W 005°23'414.8
2017-Nov-14 17:30N 36°02' W 005°24'7 2.5
2017-Nov-14 14:43N 35°57' W 005°30'210.6
2017-Nov-14 14:30N 35°58' W 005°28'6 2.0
2017-Nov-14 11:14N 36°03' W 005°23'514.4
2017-Nov-14 10:52N 35°58' W 005°26'4 1.5
2017-Nov-14 08:28N 35°56' W 005°29'612.0
2017-Nov-14 07:59N 36°01' W 005°25'7 1.5
2017-Nov-14 03:15N 36°08' W 005°26'0 0.0
2017-Nov-14 02:46N 36°08' W 005°26'0 0.0
2017-Nov-14 02:20N 36°08' W 005°26'0 0.0
2017-Nov-14 02:00N 36°08' W 005°26'0 0.0
2017-Nov-14 00:40N 36°08' W 005°26'0 0.0
2017-Nov-14 00:30N 36°08' W 005°26'1 2.7
2017-Nov-14 00:00N 36°09' W 005°25'713.2
2017-Nov-13 23:30N 36°03' W 005°23'815.4
2017-Nov-13 23:00N 35°57' W 005°29'12 0.5
2017-Nov-13 01:25N 36°08' W 005°26'2 4.7
2017-Nov-13 01:00N 36°08' W 005°24'714.6
2017-Nov-13 00:30N 36°01' W 005°24'7 2.7
2017-Nov-12 22:01N 35°56' W 005°30'011.2
2017-Nov-12 22:00N 35°56' W 005°30'612.3
2017-Nov-12 21:30N 36°01' W 005°25'713.9
2017-Nov-12 21:00N 36°08' W 005°24'2 1.2
2017-Nov-12 19:36N 36°08' W 005°26'0 0.0
2017-Nov-12 19:30N 36°08' W 005°26'2 3.3
2017-Nov-12 19:00N 36°08' W 005°24'1013.7
2017-Nov-12 18:18N 35°59' W 005°26'4 1.9
2017-Nov-12 16:02N 35°56' W 005°30'012.6
2017-Nov-12 16:00N 35°56' W 005°30'611.1
2017-Nov-12 15:30N 36°01' W 005°26'612.0
2017-Nov-12 15:00N 36°07' W 005°23'3 5.3
2017-Nov-12 14:30N 36°08' W 005°26'0 0.0
2017-Nov-12 14:00N 36°08' W 005°26'0 0.0
2017-Nov-12 13:29N 36°08' W 005°26'2 4.4
2017-Nov-12 13:00N 36°08' W 005°24'714.8
2017-Nov-12 12:30N 36°00' W 005°24'6 2.6
2017-Nov-12 10:04N 35°56' W 005°31'212.4
2017-Nov-12 09:56N 35°58' W 005°29'11 4.0
2017-Nov-12 07:14N 36°08' W 005°26'1 6.0
2017-Nov-12 07:00N 36°08' W 005°24'714.1
2017-Nov-12 06:30N 36°02' W 005°24'7 2.7
2017-Nov-12 03:46N 35°56' W 005°30'313.0
2017-Nov-12 03:31N 35°59' W 005°28'713.1
2017-Nov-12 03:01N 36°05' W 005°24'4 5.7
2017-Nov-12 02:20N 36°08' W 005°26'0 0.0
2017-Nov-12 02:00N 36°08' W 005°26'10 5.6
2017-Nov-12 00:18N 35°58' W 005°26'4 1.6
2017-Nov-11 21:34N 35°56' W 005°30'114.2
2017-Nov-11 21:30N 35°57' W 005°30'612.8
2017-Nov-11 21:00N 36°02' W 005°25'713.4
2017-Nov-11 20:30N 36°08' W 005°25'1 2.6
2017-Nov-11 19:57N 36°08' W 005°26'0 0.0
2017-Nov-11 19:30N 36°08' W 005°26'0 0.0
2017-Nov-11 19:00N 36°08' W 005°26'1 2.0
2017-Nov-11 18:20N 36°09' W 005°25'411.9
2017-Nov-11 18:00N 36°06' W 005°24'714.9
2017-Nov-11 17:30N 35°58' W 005°26'3 1.2
2017-Nov-11 15:01N 35°57' W 005°30'112.3
2017-Nov-11 14:58N 35°58' W 005°29'511.3
2017-Nov-11 14:29N 36°02' W 005°25'612.9
2017-Nov-11 14:00N 36°08' W 005°24'2 0.9
2017-Nov-11 11:53N 36°06' W 005°23'815.1
2017-Nov-11 11:21N 35°58' W 005°26'3 0.9
2017-Nov-11 08:21N 35°57' W 005°29'512.7
2017-Nov-11 07:57N 36°01' W 005°25'812.8
2017-Nov-11 07:20N 36°09' W 005°25'1 3.6
2017-Nov-11 07:00N 36°08' W 005°26'0 0.0
2017-Nov-11 05:56N 36°08' W 005°26'0 0.0
2017-Nov-11 05:28N 36°08' W 005°26'0 0.0
2017-Nov-11 04:14N 36°08' W 005°26'0 0.0
2017-Nov-11 04:00N 36°08' W 005°26'0 0.0
2017-Nov-11 03:30N 36°08' W 005°26'0 0.1
2017-Nov-11 00:27N 36°08' W 005°26'2 4.8
2017-Nov-11 00:00N 36°07' W 005°24'611.6
2017-Nov-10 23:30N 36°01' W 005°23'7 2.6
2017-Nov-10 20:40N 35°56' W 005°30'213.6
2017-Nov-10 20:30N 35°58' W 005°29'611.3
2017-Nov-10 20:00N 36°03' W 005°24'610.6
2017-Nov-10 19:26N 36°08' W 005°26'6 3.0
2017-Nov-10 17:35N 36°03' W 005°23'514.6
2017-Nov-10 17:13N 35°58' W 005°26'314.6
2017-Nov-10 17:00N 35°56' W 005°29'1 0.4
2017-Nov-10 14:31N 35°56' W 005°30'013.9
2017-Nov-10 14:30N 35°57' W 005°30'612.3
2017-Nov-10 14:00N 36°01' W 005°25'1 0.3
2017-Nov-10 11:11N 36°01' W 005°24'315.3
2017-Nov-10 10:59N 35°59' W 005°25'4 1.5
2017-Nov-10 08:17N 35°57' W 005°30'413.8
2017-Nov-10 08:00N 35°60' W 005°27'8 1.1
2017-Nov-10 00:42N 36°08' W 005°26'0 1.6
2017-Nov-10 00:30N 36°08' W 005°26'2 4.8
2017-Nov-10 00:00N 36°07' W 005°24'713.8
2017-Nov-09 23:31N 36°00' W 005°24'6 2.0
2017-Nov-09 20:44N 35°57' W 005°30'312.9
2017-Nov-09 20:30N 35°59' W 005°28'  

Dump ship's entire track history